sensor_id;sensor_type;location;lat;lon;timestamp;pressure;altitude;pressure_sealevel;temperature;humidity
60817;BME280;51921;51.518;-3.188;2023-04-27T00:01:30;101356.13;;;4.45;100.00
60817;BME280;51921;51.518;-3.188;2023-04-27T00:03:56;101358.88;;;4.27;100.00
60817;BME280;51921;51.518;-3.188;2023-04-27T00:06:21;101360.68;;;3.89;100.00
60817;BME280;51921;51.518;-3.188;2023-04-27T00:08:46;101356.97;;;5.63;100.00
60817;BME280;51921;51.518;-3.188;2023-04-27T00:11:12;101353.41;;;5.42;100.00
60817;BME280;51921;51.518;-3.188;2023-04-27T00:13:37;101350.00;;;4.29;100.00
60817;BME280;51921;51.518;-3.188;2023-04-27T00:16:03;101349.82;;;4.09;100.00
60817;BME280;51921;51.518;-3.188;2023-04-27T00:18:28;101347.35;;;3.66;100.00
60817;BME280;51921;51.518;-3.188;2023-04-27T00:20:53;101340.13;;;3.28;100.00
60817;BME280;51921;51.518;-3.188;2023-04-27T00:23:19;101344.58;;;3.07;100.00
60817;BME280;51921;51.518;-3.188;2023-04-27T00:25:44;101346.26;;;2.96;100.00
60817;BME280;51921;51.518;-3.188;2023-04-27T00:28:10;101346.99;;;3.27;100.00
60817;BME280;51921;51.518;-3.188;2023-04-27T00:30:35;101347.22;;;3.19;100.00
60817;BME280;51921;51.518;-3.188;2023-04-27T00:33:00;101348.95;;;3.12;100.00
60817;BME280;51921;51.518;-3.188;2023-04-27T00:35:26;101352.59;;;3.27;100.00
60817;BME280;51921;51.518;-3.188;2023-04-27T00:37:52;101356.87;;;4.31;100.00
60817;BME280;51921;51.518;-3.188;2023-04-27T00:40:19;101356.41;;;3.46;100.00
60817;BME280;51921;51.518;-3.188;2023-04-27T00:42:42;101354.03;;;4.04;100.00
60817;BME280;51921;51.518;-3.188;2023-04-27T00:45:09;101354.53;;;3.97;100.00
60817;BME280;51921;51.518;-3.188;2023-04-27T00:47:33;101354.05;;;3.61;100.00
60817;BME280;51921;51.518;-3.188;2023-04-27T00:49:58;101353.12;;;3.54;100.00
60817;BME280;51921;51.518;-3.188;2023-04-27T00:52:23;101354.82;;;3.47;100.00
60817;BME280;51921;51.518;-3.188;2023-04-27T00:54:50;101352.91;;;3.26;100.00
60817;BME280;51921;51.518;-3.188;2023-04-27T00:57:14;101350.79;;;3.27;100.00
60817;BME280;51921;51.518;-3.188;2023-04-27T00:59:40;101344.55;;;3.22;100.00
60817;BME280;51921;51.518;-3.188;2023-04-27T01:02:05;101345.26;;;4.17;100.00
60817;BME280;51921;51.518;-3.188;2023-04-27T01:04:30;101340.37;;;4.17;100.00
60817;BME280;51921;51.518;-3.188;2023-04-27T01:06:56;101336.43;;;3.38;100.00
60817;BME280;51921;51.518;-3.188;2023-04-27T01:09:21;101339.02;;;2.80;100.00
60817;BME280;51921;51.518;-3.188;2023-04-27T01:11:46;101336.71;;;3.26;100.00
60817;BME280;51921;51.518;-3.188;2023-04-27T01:14:12;101338.77;;;3.60;100.00
60817;BME280;51921;51.518;-3.188;2023-04-27T01:16:38;101335.85;;;3.40;100.00
60817;BME280;51921;51.518;-3.188;2023-04-27T01:19:03;101334.06;;;4.18;100.00
60817;BME280;51921;51.518;-3.188;2023-04-27T01:21:29;101337.47;;;4.73;100.00
60817;BME280;51921;51.518;-3.188;2023-04-27T01:23:55;101336.99;;;4.23;100.00
60817;BME280;51921;51.518;-3.188;2023-04-27T01:26:20;101332.51;;;4.38;100.00
60817;BME280;51921;51.518;-3.188;2023-04-27T01:28:46;101329.66;;;3.92;100.00
60817;BME280;51921;51.518;-3.188;2023-04-27T01:31:12;101326.21;;;3.88;100.00
60817;BME280;51921;51.518;-3.188;2023-04-27T01:33:38;101324.73;;;3.55;100.00
60817;BME280;51921;51.518;-3.188;2023-04-27T01:36:03;101325.50;;;4.31;100.00
60817;BME280;51921;51.518;-3.188;2023-04-27T01:38:28;101322.08;;;3.60;100.00
60817;BME280;51921;51.518;-3.188;2023-04-27T01:40:54;101316.91;;;3.63;100.00
60817;BME280;51921;51.518;-3.188;2023-04-27T01:43:19;101313.16;;;3.87;100.00
60817;BME280;51921;51.518;-3.188;2023-04-27T01:45:45;101307.75;;;4.42;100.00
60817;BME280;51921;51.518;-3.188;2023-04-27T01:48:10;101301.59;;;4.31;100.00
60817;BME280;51921;51.518;-3.188;2023-04-27T01:50:36;101299.75;;;3.72;100.00
60817;BME280;51921;51.518;-3.188;2023-04-27T01:53:02;101301.42;;;5.01;100.00
60817;BME280;51921;51.518;-3.188;2023-04-27T01:55:28;101301.76;;;3.71;100.00
60817;BME280;51921;51.518;-3.188;2023-04-27T01:57:53;101298.13;;;3.38;100.00
60817;BME280;51921;51.518;-3.188;2023-04-27T02:00:19;101290.20;;;3.18;100.00
60817;BME280;51921;51.518;-3.188;2023-04-27T02:02:44;101288.87;;;3.41;100.00
60817;BME280;51921;51.518;-3.188;2023-04-27T02:05:10;101291.19;;;3.59;100.00
60817;BME280;51921;51.518;-3.188;2023-04-27T02:07:35;101286.50;;;3.48;100.00
60817;BME280;51921;51.518;-3.188;2023-04-27T02:10:01;101284.64;;;3.38;100.00
60817;BME280;51921;51.518;-3.188;2023-04-27T02:12:26;101286.98;;;4.05;100.00
60817;BME280;51921;51.518;-3.188;2023-04-27T02:14:52;101286.11;;;3.79;100.00
60817;BME280;51921;51.518;-3.188;2023-04-27T02:17:17;101288.41;;;3.58;100.00
60817;BME280;51921;51.518;-3.188;2023-04-27T02:19:43;101286.68;;;3.94;100.00
60817;BME280;51921;51.518;-3.188;2023-04-27T02:22:09;101287.60;;;4.40;100.00
60817;BME280;51921;51.518;-3.188;2023-04-27T02:24:34;101282.83;;;4.61;100.00
60817;BME280;51921;51.518;-3.188;2023-04-27T02:26:59;101284.06;;;3.56;100.00
60817;BME280;51921;51.518;-3.188;2023-04-27T02:29:29;101280.07;;;3.65;100.00
60817;BME280;51921;51.518;-3.188;2023-04-27T02:31:50;101278.57;;;4.24;100.00
60817;BME280;51921;51.518;-3.188;2023-04-27T02:34:16;101269.30;;;3.78;100.00
60817;BME280;51921;51.518;-3.188;2023-04-27T02:36:41;101261.04;;;3.76;100.00
60817;BME280;51921;51.518;-3.188;2023-04-27T02:39:06;101256.28;;;3.32;100.00
60817;BME280;51921;51.518;-3.188;2023-04-27T02:41:32;101250.78;;;3.68;100.00
60817;BME280;51921;51.518;-3.188;2023-04-27T02:43:57;101246.07;;;3.05;100.00
60817;BME280;51921;51.518;-3.188;2023-04-27T02:46:23;101236.68;;;3.39;100.00
60817;BME280;51921;51.518;-3.188;2023-04-27T02:48:49;101233.64;;;3.01;100.00
60817;BME280;51921;51.518;-3.188;2023-04-27T02:51:14;101231.44;;;3.93;100.00
60817;BME280;51921;51.518;-3.188;2023-04-27T02:53:40;101228.44;;;3.25;100.00
60817;BME280;51921;51.518;-3.188;2023-04-27T02:56:06;101227.04;;;3.07;100.00
60817;BME280;51921;51.518;-3.188;2023-04-27T02:58:31;101226.24;;;3.62;100.00
60817;BME280;51921;51.518;-3.188;2023-04-27T03:00:57;101223.89;;;3.33;100.00
60817;BME280;51921;51.518;-3.188;2023-04-27T03:03:22;101221.84;;;3.05;100.00
60817;BME280;51921;51.518;-3.188;2023-04-27T03:05:48;101218.95;;;3.06;100.00
60817;BME280;51921;51.518;-3.188;2023-04-27T03:08:13;101217.39;;;3.41;100.00
60817;BME280;51921;51.518;-3.188;2023-04-27T03:10:38;101216.18;;;2.78;100.00
60817;BME280;51921;51.518;-3.188;2023-04-27T03:13:04;101213.87;;;2.85;100.00
60817;BME280;51921;51.518;-3.188;2023-04-27T03:15:29;101212.26;;;3.22;100.00
60817;BME280;51921;51.518;-3.188;2023-04-27T03:17:55;101214.66;;;3.61;100.00
60817;BME280;51921;51.518;-3.188;2023-04-27T03:20:20;101220.61;;;3.99;100.00
60817;BME280;51921;51.518;-3.188;2023-04-27T03:22:46;101214.71;;;3.96;100.00
60817;BME280;51921;51.518;-3.188;2023-04-27T03:25:12;101210.65;;;2.93;100.00
60817;BME280;51921;51.518;-3.188;2023-04-27T03:27:37;101212.23;;;3.84;100.00
60817;BME280;51921;51.518;-3.188;2023-04-27T03:30:03;101207.62;;;3.22;100.00
60817;BME280;51921;51.518;-3.188;2023-04-27T03:32:28;101203.71;;;3.28;100.00
60817;BME280;51921;51.518;-3.188;2023-04-27T03:34:53;101199.35;;;3.25;100.00
60817;BME280;51921;51.518;-3.188;2023-04-27T03:37:18;101203.36;;;3.80;100.00
60817;BME280;51921;51.518;-3.188;2023-04-27T03:39:44;101202.78;;;3.31;100.00
60817;BME280;51921;51.518;-3.188;2023-04-27T03:42:09;101201.17;;;3.76;100.00
60817;BME280;51921;51.518;-3.188;2023-04-27T03:44:35;101205.35;;;3.66;100.00
60817;BME280;51921;51.518;-3.188;2023-04-27T03:47:01;101209.69;;;4.22;100.00
60817;BME280;51921;51.518;-3.188;2023-04-27T03:49:26;101200.52;;;3.83;100.00
60817;BME280;51921;51.518;-3.188;2023-04-27T03:51:52;101200.57;;;3.13;100.00
60817;BME280;51921;51.518;-3.188;2023-04-27T03:54:17;101205.38;;;3.59;100.00
60817;BME280;51921;51.518;-3.188;2023-04-27T03:56:42;101207.17;;;3.45;100.00
60817;BME280;51921;51.518;-3.188;2023-04-27T03:59:08;101206.63;;;3.79;100.00
60817;BME280;51921;51.518;-3.188;2023-04-27T04:01:34;101202.56;;;3.48;100.00
60817;BME280;51921;51.518;-3.188;2023-04-27T04:03:59;101199.32;;;4.15;100.00
60817;BME280;51921;51.518;-3.188;2023-04-27T04:06:24;101197.70;;;4.49;99.81
60817;BME280;51921;51.518;-3.188;2023-04-27T04:08:50;101198.20;;;3.67;100.00
60817;BME280;51921;51.518;-3.188;2023-04-27T04:11:16;101193.50;;;3.39;100.00
60817;BME280;51921;51.518;-3.188;2023-04-27T04:13:41;101189.86;;;3.76;100.00
60817;BME280;51921;51.518;-3.188;2023-04-27T04:16:08;101184.22;;;2.89;100.00
60817;BME280;51921;51.518;-3.188;2023-04-27T04:18:32;101177.99;;;3.35;100.00
60817;BME280;51921;51.518;-3.188;2023-04-27T04:20:57;101174.86;;;3.50;100.00
60817;BME280;51921;51.518;-3.188;2023-04-27T04:23:23;101169.99;;;3.11;100.00
60817;BME280;51921;51.518;-3.188;2023-04-27T04:25:49;101163.86;;;2.82;100.00
60817;BME280;51921;51.518;-3.188;2023-04-27T04:28:15;101164.95;;;3.20;100.00
60817;BME280;51921;51.518;-3.188;2023-04-27T04:30:39;101161.48;;;2.95;100.00
60817;BME280;51921;51.518;-3.188;2023-04-27T04:33:05;101154.39;;;3.52;100.00
60817;BME280;51921;51.518;-3.188;2023-04-27T04:35:30;101147.76;;;3.19;100.00
60817;BME280;51921;51.518;-3.188;2023-04-27T04:37:55;101144.30;;;2.71;100.00
60817;BME280;51921;51.518;-3.188;2023-04-27T04:40:21;101148.57;;;2.97;100.00
60817;BME280;51921;51.518;-3.188;2023-04-27T04:42:46;101144.23;;;2.87;100.00
60817;BME280;51921;51.518;-3.188;2023-04-27T04:45:12;101142.42;;;2.84;100.00
60817;BME280;51921;51.518;-3.188;2023-04-27T04:47:37;101145.76;;;2.77;100.00
60817;BME280;51921;51.518;-3.188;2023-04-27T04:50:03;101148.04;;;3.33;100.00
60817;BME280;51921;51.518;-3.188;2023-04-27T04:52:28;101148.38;;;3.37;100.00
60817;BME280;51921;51.518;-3.188;2023-04-27T04:54:54;101146.66;;;2.74;100.00
60817;BME280;51921;51.518;-3.188;2023-04-27T04:57:19;101151.90;;;2.73;100.00
60817;BME280;51921;51.518;-3.188;2023-04-27T04:59:45;101152.52;;;2.67;100.00
60817;BME280;51921;51.518;-3.188;2023-04-27T05:02:10;101153.35;;;3.22;100.00
60817;BME280;51921;51.518;-3.188;2023-04-27T05:04:36;101152.87;;;3.19;100.00
60817;BME280;51921;51.518;-3.188;2023-04-27T05:07:01;101154.05;;;3.12;100.00
60817;BME280;51921;51.518;-3.188;2023-04-27T05:09:26;101157.23;;;2.91;100.00
60817;BME280;51921;51.518;-3.188;2023-04-27T05:11:52;101158.86;;;3.29;100.00
60817;BME280;51921;51.518;-3.188;2023-04-27T05:14:18;101163.42;;;3.41;100.00
60817;BME280;51921;51.518;-3.188;2023-04-27T05:16:43;101166.84;;;3.79;100.00
60817;BME280;51921;51.518;-3.188;2023-04-27T05:19:08;101159.57;;;3.18;100.00
60817;BME280;51921;51.518;-3.188;2023-04-27T05:21:33;101156.42;;;2.67;100.00
60817;BME280;51921;51.518;-3.188;2023-04-27T05:23:58;101154.78;;;2.89;100.00
60817;BME280;51921;51.518;-3.188;2023-04-27T05:26:24;101151.55;;;2.60;100.00
60817;BME280;51921;51.518;-3.188;2023-04-27T05:28:49;101149.72;;;2.76;100.00
60817;BME280;51921;51.518;-3.188;2023-04-27T05:31:14;101152.69;;;2.66;100.00
60817;BME280;51921;51.518;-3.188;2023-04-27T05:33:40;101152.43;;;3.07;100.00
60817;BME280;51921;51.518;-3.188;2023-04-27T05:36:05;101150.48;;;2.44;100.00
60817;BME280;51921;51.518;-3.188;2023-04-27T05:38:30;101149.59;;;2.72;100.00
60817;BME280;51921;51.518;-3.188;2023-04-27T05:40:56;101148.69;;;3.20;100.00
60817;BME280;51921;51.518;-3.188;2023-04-27T05:43:21;101142.12;;;3.27;100.00
60817;BME280;51921;51.518;-3.188;2023-04-27T05:45:46;101145.54;;;2.96;100.00
60817;BME280;51921;51.518;-3.188;2023-04-27T05:48:12;101146.50;;;2.53;100.00
60817;BME280;51921;51.518;-3.188;2023-04-27T05:50:43;101143.93;;;2.65;100.00
60817;BME280;51921;51.518;-3.188;2023-04-27T05:53:03;101148.66;;;2.80;100.00
60817;BME280;51921;51.518;-3.188;2023-04-27T05:55:29;101149.28;;;3.02;100.00
60817;BME280;51921;51.518;-3.188;2023-04-27T05:57:54;101150.32;;;3.34;100.00
60817;BME280;51921;51.518;-3.188;2023-04-27T06:00:19;101149.25;;;3.14;100.00
60817;BME280;51921;51.518;-3.188;2023-04-27T06:02:45;101149.22;;;2.97;100.00
60817;BME280;51921;51.518;-3.188;2023-04-27T06:05:10;101150.94;;;3.39;100.00
60817;BME280;51921;51.518;-3.188;2023-04-27T06:07:36;101146.79;;;3.19;100.00
60817;BME280;51921;51.518;-3.188;2023-04-27T06:10:01;101137.73;;;3.01;100.00
60817;BME280;51921;51.518;-3.188;2023-04-27T06:12:27;101138.24;;;3.83;100.00
60817;BME280;51921;51.518;-3.188;2023-04-27T06:14:52;101138.67;;;3.43;100.00
60817;BME280;51921;51.518;-3.188;2023-04-27T06:17:18;101137.81;;;3.32;100.00
60817;BME280;51921;51.518;-3.188;2023-04-27T06:19:43;101128.04;;;2.86;100.00
60817;BME280;51921;51.518;-3.188;2023-04-27T06:22:09;101134.65;;;2.79;100.00
60817;BME280;51921;51.518;-3.188;2023-04-27T06:24:33;101132.05;;;2.89;100.00
60817;BME280;51921;51.518;-3.188;2023-04-27T06:26:58;101135.11;;;3.00;100.00
60817;BME280;51921;51.518;-3.188;2023-04-27T06:29:23;101127.80;;;3.02;100.00
60817;BME280;51921;51.518;-3.188;2023-04-27T06:31:49;101127.51;;;2.90;100.00
60817;BME280;51921;51.518;-3.188;2023-04-27T06:34:14;101119.84;;;2.73;100.00
60817;BME280;51921;51.518;-3.188;2023-04-27T06:36:39;101117.97;;;3.16;100.00
60817;BME280;51921;51.518;-3.188;2023-04-27T06:39:05;101109.19;;;3.58;100.00
60817;BME280;51921;51.518;-3.188;2023-04-27T06:41:30;101106.65;;;2.87;100.00
60817;BME280;51921;51.518;-3.188;2023-04-27T06:43:56;101103.71;;;2.85;100.00
60817;BME280;51921;51.518;-3.188;2023-04-27T06:46:22;101110.36;;;3.85;100.00
60817;BME280;51921;51.518;-3.188;2023-04-27T06:48:47;101113.19;;;3.25;100.00
60817;BME280;51921;51.518;-3.188;2023-04-27T06:51:12;101113.06;;;3.33;100.00
60817;BME280;51921;51.518;-3.188;2023-04-27T06:53:37;101119.68;;;3.20;100.00
60817;BME280;51921;51.518;-3.188;2023-04-27T06:56:03;101124.30;;;2.71;100.00
60817;BME280;51921;51.518;-3.188;2023-04-27T06:58:27;101139.55;;;3.62;100.00
60817;BME280;51921;51.518;-3.188;2023-04-27T07:00:53;101138.16;;;4.32;100.00
60817;BME280;51921;51.518;-3.188;2023-04-27T07:03:19;101138.80;;;5.10;100.00
60817;BME280;51921;51.518;-3.188;2023-04-27T07:05:44;101136.78;;;3.28;100.00
60817;BME280;51921;51.518;-3.188;2023-04-27T07:08:11;101136.48;;;2.69;100.00
60817;BME280;51921;51.518;-3.188;2023-04-27T07:10:35;101132.80;;;3.01;100.00
60817;BME280;51921;51.518;-3.188;2023-04-27T07:13:01;101132.96;;;3.60;100.00
60817;BME280;51921;51.518;-3.188;2023-04-27T07:15:26;101125.84;;;2.87;100.00
60817;BME280;51921;51.518;-3.188;2023-04-27T07:17:52;101125.98;;;2.68;100.00
60817;BME280;51921;51.518;-3.188;2023-04-27T07:20:17;101122.23;;;2.40;100.00
60817;BME280;51921;51.518;-3.188;2023-04-27T07:22:43;101118.12;;;2.55;100.00
60817;BME280;51921;51.518;-3.188;2023-04-27T07:25:08;101125.09;;;2.64;100.00
60817;BME280;51921;51.518;-3.188;2023-04-27T07:27:34;101126.97;;;3.23;100.00
60817;BME280;51921;51.518;-3.188;2023-04-27T07:29:59;101125.93;;;2.97;100.00
60817;BME280;51921;51.518;-3.188;2023-04-27T07:32:24;101127.25;;;3.40;100.00
60817;BME280;51921;51.518;-3.188;2023-04-27T07:34:51;101120.67;;;3.27;100.00
60817;BME280;51921;51.518;-3.188;2023-04-27T07:37:16;101118.95;;;3.15;100.00
60817;BME280;51921;51.518;-3.188;2023-04-27T07:39:41;101117.94;;;3.12;100.00
60817;BME280;51921;51.518;-3.188;2023-04-27T07:42:07;101123.26;;;2.66;100.00
60817;BME280;51921;51.518;-3.188;2023-04-27T07:44:33;101117.06;;;3.27;100.00
60817;BME280;51921;51.518;-3.188;2023-04-27T07:46:58;101110.58;;;2.94;100.00
60817;BME280;51921;51.518;-3.188;2023-04-27T07:49:23;101102.20;;;3.02;100.00
60817;BME280;51921;51.518;-3.188;2023-04-27T07:51:49;101094.52;;;3.07;100.00
60817;BME280;51921;51.518;-3.188;2023-04-27T07:54:14;101090.14;;;3.01;100.00
60817;BME280;51921;51.518;-3.188;2023-04-27T07:56:41;101090.15;;;2.59;100.00
60817;BME280;51921;51.518;-3.188;2023-04-27T07:59:04;101088.30;;;2.85;100.00
60817;BME280;51921;51.518;-3.188;2023-04-27T08:01:30;101080.87;;;3.03;100.00
60817;BME280;51921;51.518;-3.188;2023-04-27T08:03:55;101079.17;;;3.02;100.00
60817;BME280;51921;51.518;-3.188;2023-04-27T08:06:20;101074.71;;;3.84;100.00
60817;BME280;51921;51.518;-3.188;2023-04-27T08:08:46;101081.77;;;3.07;100.00
60817;BME280;51921;51.518;-3.188;2023-04-27T08:11:11;101081.40;;;2.98;100.00
60817;BME280;51921;51.518;-3.188;2023-04-27T08:13:38;101081.02;;;3.18;100.00
60817;BME280;51921;51.518;-3.188;2023-04-27T08:16:03;101076.76;;;2.96;100.00
60817;BME280;51921;51.518;-3.188;2023-04-27T08:18:27;101075.73;;;3.59;100.00
60817;BME280;51921;51.518;-3.188;2023-04-27T08:20:53;101070.66;;;3.28;100.00
60817;BME280;51921;51.518;-3.188;2023-04-27T08:23:19;101077.58;;;3.34;100.00
60817;BME280;51921;51.518;-3.188;2023-04-27T08:25:44;101082.23;;;3.24;100.00
60817;BME280;51921;51.518;-3.188;2023-04-27T08:28:09;101084.69;;;3.29;100.00
60817;BME280;51921;51.518;-3.188;2023-04-27T08:30:34;101077.77;;;3.42;100.00
60817;BME280;51921;51.518;-3.188;2023-04-27T08:32:59;101072.40;;;3.23;100.00
60817;BME280;51921;51.518;-3.188;2023-04-27T08:35:25;101067.91;;;3.54;100.00
60817;BME280;51921;51.518;-3.188;2023-04-27T08:37:50;101061.73;;;4.03;100.00
60817;BME280;51921;51.518;-3.188;2023-04-27T08:40:16;101053.21;;;4.03;100.00
60817;BME280;51921;51.518;-3.188;2023-04-27T08:45:07;101052.00;;;3.83;100.00
60817;BME280;51921;51.518;-3.188;2023-04-27T08:47:31;101040.59;;;3.78;100.00
60817;BME280;51921;51.518;-3.188;2023-04-27T08:49:56;101039.22;;;3.84;100.00
60817;BME280;51921;51.518;-3.188;2023-04-27T08:52:27;101040.84;;;3.88;100.00
60817;BME280;51921;51.518;-3.188;2023-04-27T08:54:47;101042.15;;;3.98;100.00
60817;BME280;51921;51.518;-3.188;2023-04-27T08:57:14;101040.99;;;4.32;100.00
60817;BME280;51921;51.518;-3.188;2023-04-27T08:59:39;101048.09;;;3.50;100.00
60817;BME280;51921;51.518;-3.188;2023-04-27T09:02:04;101050.92;;;3.87;100.00
60817;BME280;51921;51.518;-3.188;2023-04-27T09:04:36;101052.13;;;4.04;100.00
60817;BME280;51921;51.518;-3.188;2023-04-27T09:06:55;101051.54;;;3.86;100.00
60817;BME280;51921;51.518;-3.188;2023-04-27T09:09:21;101054.37;;;4.20;100.00
60817;BME280;51921;51.518;-3.188;2023-04-27T09:11:46;101055.75;;;4.32;100.00
60817;BME280;51921;51.518;-3.188;2023-04-27T09:14:16;101061.89;;;4.01;100.00
60817;BME280;51921;51.518;-3.188;2023-04-27T09:16:37;101052.03;;;3.85;100.00
60817;BME280;51921;51.518;-3.188;2023-04-27T09:19:02;101046.71;;;4.34;100.00
60817;BME280;51921;51.518;-3.188;2023-04-27T09:21:28;101044.89;;;3.99;100.00
60817;BME280;51921;51.518;-3.188;2023-04-27T09:23:53;101043.42;;;3.90;100.00
60817;BME280;51921;51.518;-3.188;2023-04-27T09:26:20;101041.54;;;4.55;100.00
60817;BME280;51921;51.518;-3.188;2023-04-27T09:28:47;101037.70;;;4.37;100.00
60817;BME280;51921;51.518;-3.188;2023-04-27T09:31:10;101040.69;;;4.79;100.00
60817;BME280;51921;51.518;-3.188;2023-04-27T09:33:35;101041.57;;;4.37;100.00
60817;BME280;51921;51.518;-3.188;2023-04-27T09:36:02;101048.76;;;4.10;100.00
60817;BME280;51921;51.518;-3.188;2023-04-27T09:38:26;101053.01;;;4.25;100.00
60817;BME280;51921;51.518;-3.188;2023-04-27T09:40:52;101049.27;;;4.76;100.00
60817;BME280;51921;51.518;-3.188;2023-04-27T09:43:16;101044.96;;;4.08;100.00
60817;BME280;51921;51.518;-3.188;2023-04-27T09:45:41;101038.20;;;4.06;100.00
60817;BME280;51921;51.518;-3.188;2023-04-27T09:48:07;101035.02;;;4.23;100.00
60817;BME280;51921;51.518;-3.188;2023-04-27T09:50:34;101039.06;;;3.84;100.00
60817;BME280;51921;51.518;-3.188;2023-04-27T09:52:57;101038.21;;;4.21;100.00
60817;BME280;51921;51.518;-3.188;2023-04-27T09:55:26;101038.97;;;4.41;100.00
60817;BME280;51921;51.518;-3.188;2023-04-27T09:57:54;101041.82;;;4.26;100.00
60817;BME280;51921;51.518;-3.188;2023-04-27T10:00:24;101041.71;;;4.88;100.00
60817;BME280;51921;51.518;-3.188;2023-04-27T10:02:56;101040.72;;;4.41;100.00
60817;BME280;51921;51.518;-3.188;2023-04-27T10:05:23;101037.97;;;4.46;100.00
60817;BME280;51921;51.518;-3.188;2023-04-27T10:07:31;101032.35;;;3.91;100.00
60817;BME280;51921;51.518;-3.188;2023-04-27T10:10:00;101032.62;;;4.32;100.00
60817;BME280;51921;51.518;-3.188;2023-04-27T10:12:27;101027.80;;;4.73;100.00
60817;BME280;51921;51.518;-3.188;2023-04-27T10:14:50;101018.44;;;4.34;100.00
60817;BME280;51921;51.518;-3.188;2023-04-27T10:17:13;101014.52;;;4.29;100.00
60817;BME280;51921;51.518;-3.188;2023-04-27T10:19:38;101006.13;;;4.48;100.00
60817;BME280;51921;51.518;-3.188;2023-04-27T10:22:03;100997.85;;;4.25;100.00
60817;BME280;51921;51.518;-3.188;2023-04-27T10:24:34;100991.74;;;4.40;100.00
60817;BME280;51921;51.518;-3.188;2023-04-27T10:27:00;100987.27;;;4.65;100.00
60817;BME280;51921;51.518;-3.188;2023-04-27T10:29:19;100985.89;;;4.37;100.00
60817;BME280;51921;51.518;-3.188;2023-04-27T10:31:47;100978.66;;;4.27;100.00
60817;BME280;51921;51.518;-3.188;2023-04-27T10:34:15;100973.10;;;4.45;100.00
60817;BME280;51921;51.518;-3.188;2023-04-27T10:36:37;100972.94;;;4.39;100.00
60817;BME280;51921;51.518;-3.188;2023-04-27T10:39:02;100973.65;;;4.48;100.00
60817;BME280;51921;51.518;-3.188;2023-04-27T10:41:33;100969.83;;;4.32;100.00
60817;BME280;51921;51.518;-3.188;2023-04-27T10:43:52;100966.33;;;4.52;100.00
60817;BME280;51921;51.518;-3.188;2023-04-27T10:46:17;100961.91;;;4.81;100.00
60817;BME280;51921;51.518;-3.188;2023-04-27T10:48:43;100957.24;;;4.82;100.00
60817;BME280;51921;51.518;-3.188;2023-04-27T10:51:08;100954.18;;;5.15;100.00
60817;BME280;51921;51.518;-3.188;2023-04-27T10:53:33;100947.54;;;5.53;100.00
60817;BME280;51921;51.518;-3.188;2023-04-27T10:55:59;100947.77;;;5.18;100.00
60817;BME280;51921;51.518;-3.188;2023-04-27T10:58:25;100943.77;;;5.03;100.00
60817;BME280;51921;51.518;-3.188;2023-04-27T11:00:50;100938.04;;;5.14;100.00
60817;BME280;51921;51.518;-3.188;2023-04-27T11:03:17;100935.53;;;4.75;100.00
60817;BME280;51921;51.518;-3.188;2023-04-27T11:05:42;100932.28;;;4.83;100.00
60817;BME280;51921;51.518;-3.188;2023-04-27T11:08:07;100925.25;;;4.24;100.00
60817;BME280;51921;51.518;-3.188;2023-04-27T11:10:32;100915.16;;;5.28;100.00
60817;BME280;51921;51.518;-3.188;2023-04-27T11:12:58;100910.44;;;5.31;100.00
60817;BME280;51921;51.518;-3.188;2023-04-27T11:15:23;100915.57;;;4.58;100.00
60817;BME280;51921;51.518;-3.188;2023-04-27T11:17:49;100912.97;;;4.70;100.00
60817;BME280;51921;51.518;-3.188;2023-04-27T11:20:23;100912.07;;;5.63;100.00
60817;BME280;51921;51.518;-3.188;2023-04-27T11:22:44;100905.26;;;4.59;100.00
60817;BME280;51921;51.518;-3.188;2023-04-27T11:25:06;100898.93;;;5.43;100.00
60817;BME280;51921;51.518;-3.188;2023-04-27T11:27:37;100898.79;;;4.84;100.00
60817;BME280;51921;51.518;-3.188;2023-04-27T11:29:57;100898.86;;;5.66;100.00
60817;BME280;51921;51.518;-3.188;2023-04-27T11:32:23;100895.88;;;4.92;100.00
60817;BME280;51921;51.518;-3.188;2023-04-27T11:34:49;100894.14;;;4.43;100.00
60817;BME280;51921;51.518;-3.188;2023-04-27T11:37:21;100889.65;;;5.10;100.00
60817;BME280;51921;51.518;-3.188;2023-04-27T11:39:38;100883.15;;;4.92;100.00
60817;BME280;51921;51.518;-3.188;2023-04-27T11:42:13;100887.08;;;4.78;100.00
60817;BME280;51921;51.518;-3.188;2023-04-27T11:44:28;100880.99;;;5.10;100.00
60817;BME280;51921;51.518;-3.188;2023-04-27T11:46:54;100879.60;;;5.62;100.00
60817;BME280;51921;51.518;-3.188;2023-04-27T11:49:19;100873.44;;;5.66;100.00
60817;BME280;51921;51.518;-3.188;2023-04-27T11:51:45;100867.37;;;4.64;100.00
60817;BME280;51921;51.518;-3.188;2023-04-27T11:54:10;100872.61;;;4.79;100.00
60817;BME280;51921;51.518;-3.188;2023-04-27T11:56:36;100867.80;;;4.98;100.00
60817;BME280;51921;51.518;-3.188;2023-04-27T11:59:00;100873.16;;;5.27;100.00
60817;BME280;51921;51.518;-3.188;2023-04-27T12:01:26;100873.63;;;5.09;100.00
60817;BME280;51921;51.518;-3.188;2023-04-27T12:03:52;100867.76;;;5.23;100.00
60817;BME280;51921;51.518;-3.188;2023-04-27T12:06:23;100870.94;;;4.95;100.00
60817;BME280;51921;51.518;-3.188;2023-04-27T12:08:42;100866.35;;;5.34;100.00
60817;BME280;51921;51.518;-3.188;2023-04-27T12:11:07;100866.98;;;4.86;100.00
60817;BME280;51921;51.518;-3.188;2023-04-27T12:13:33;100869.15;;;5.46;100.00
60817;BME280;51921;51.518;-3.188;2023-04-27T12:15:58;100872.26;;;6.66;100.00
60817;BME280;51921;51.518;-3.188;2023-04-27T12:18:24;100872.85;;;5.48;100.00
60817;BME280;51921;51.518;-3.188;2023-04-27T12:20:49;100877.06;;;5.91;100.00
60817;BME280;51921;51.518;-3.188;2023-04-27T12:23:15;100874.44;;;5.86;100.00
60817;BME280;51921;51.518;-3.188;2023-04-27T12:25:40;100871.94;;;5.13;100.00
60817;BME280;51921;51.518;-3.188;2023-04-27T12:28:05;100873.54;;;5.72;100.00
60817;BME280;51921;51.518;-3.188;2023-04-27T12:30:31;100871.50;;;5.75;100.00
60817;BME280;51921;51.518;-3.188;2023-04-27T12:32:56;100871.38;;;5.61;100.00